createdAt,value
2022-10-18T00:00:07.763Z,102209.47
2022-10-18T00:02:34.838Z,102213.06
2022-10-18T00:05:01.865Z,102213.09
2022-10-18T00:07:28.908Z,102213.94
2022-10-18T00:09:56.105Z,102213.16
2022-10-18T00:12:23.202Z,102208.00
2022-10-18T00:14:51.171Z,102206.47
2022-10-18T00:17:18.575Z,102200.50
2022-10-18T00:19:46.753Z,102213.66
2022-10-18T00:22:13.659Z,102213.72
2022-10-18T00:24:40.696Z,102220.47
2022-10-18T00:27:07.737Z,102223.84
2022-10-18T00:29:34.943Z,102223.13
2022-10-18T00:32:01.885Z,102224.94
2022-10-18T00:34:28.779Z,102219.91
2022-10-18T00:36:55.724Z,102219.13
2022-10-18T00:39:22.920Z,102207.13
2022-10-18T00:41:50.690Z,102212.38
2022-10-18T00:44:17.437Z,102226.47
2022-10-18T00:46:46.977Z,102223.16
2022-10-18T00:49:16.544Z,102223.16
2022-10-18T00:51:48.773Z,102230.19
2022-10-18T00:54:18.220Z,102231.97
2022-10-18T00:56:45.567Z,102221.59
2022-10-18T00:59:15.334Z,102228.56
2022-10-18T01:01:42.454Z,102239.00
2022-10-18T01:04:09.577Z,102217.28
2022-10-18T01:06:50.941Z,102212.16
2022-10-18T01:09:41.876Z,102223.44
2022-10-18T01:12:30.216Z,102224.22
2022-10-18T01:15:21.181Z,102224.22
2022-10-18T01:18:06.041Z,102236.34
2022-10-18T01:20:46.395Z,102250.25
2022-10-18T01:23:13.342Z,102254.69
2022-10-18T01:25:57.294Z,102247.69
2022-10-18T01:28:53.110Z,102248.78
2022-10-18T01:31:31.933Z,102246.16
2022-10-18T01:34:03.240Z,102246.25
2022-10-18T01:36:35.190Z,102252.31
2022-10-18T01:39:06.639Z,102260.13
2022-10-18T01:41:36.247Z,102264.47
2022-10-18T01:44:06.832Z,102259.25
2022-10-18T01:46:34.149Z,102260.13
2022-10-18T01:49:01.075Z,102248.94
2022-10-18T01:51:31.761Z,102241.13
2022-10-18T01:53:58.915Z,102246.31
2022-10-18T01:56:55.240Z,102248.03
2022-10-18T01:59:56.064Z,102248.97
2022-10-18T02:02:35.164Z,102252.50
2022-10-18T02:05:13.946Z,102251.63
2022-10-18T02:08:18.749Z,102258.53
2022-10-18T02:10:53.812Z,102259.50
2022-10-18T02:13:24.796Z,102245.75
2022-10-18T02:15:56.555Z,102251.81
2022-10-18T02:18:32.147Z,102253.72
2022-10-18T02:21:01.753Z,102254.78
2022-10-18T02:23:28.694Z,102253.94
2022-10-18T02:25:55.797Z,102261.69
2022-10-18T02:28:25.938Z,102264.34
2022-10-18T02:31:02.180Z,102261.75
2022-10-18T02:33:46.583Z,102255.56
2022-10-18T02:36:18.609Z,102256.34
2022-10-18T02:38:46.771Z,102245.91
2022-10-18T02:41:23.146Z,102250.19
2022-10-18T02:43:49.929Z,102249.31
2022-10-18T02:46:16.898Z,102254.66
2022-10-18T02:48:43.832Z,102253.13
2022-10-18T02:51:10.722Z,102249.78
2022-10-18T02:53:37.602Z,102249.91
2022-10-18T02:56:04.667Z,102245.66
2022-10-18T02:58:31.553Z,102238.75
2022-10-18T03:00:58.438Z,102236.94
2022-10-18T03:03:25.438Z,102237.66
2022-10-18T03:05:53.351Z,102241.78
2022-10-18T03:08:20.359Z,102230.34
2022-10-18T03:10:47.653Z,102227.63
2022-10-18T03:13:14.553Z,102231.09
2022-10-18T03:15:42.423Z,102233.84
2022-10-18T03:18:09.622Z,102225.25
2022-10-18T03:20:36.455Z,102225.34
2022-10-18T03:23:03.620Z,102227.22
2022-10-18T03:25:30.549Z,102230.75
2022-10-18T03:27:57.341Z,102229.97
2022-10-18T03:30:24.285Z,102233.53
2022-10-18T03:32:51.286Z,102228.34
2022-10-18T03:35:18.481Z,102226.53
2022-10-18T03:37:45.229Z,102223.81
2022-10-18T03:40:12.387Z,102222.91
2022-10-18T03:42:39.432Z,102214.28
2022-10-18T03:45:06.832Z,102214.28
2022-10-18T03:47:33.780Z,102219.56
2022-10-18T03:50:00.715Z,102211.13
2022-10-18T03:52:28.174Z,102213.06
2022-10-18T03:54:55.165Z,102205.34
2022-10-18T03:57:22.074Z,102209.53
2022-10-18T03:59:49.016Z,102204.13
2022-10-18T04:02:15.915Z,102207.31
2022-10-18T04:04:42.907Z,102222.72
2022-10-18T04:07:09.844Z,102209.72
2022-10-18T04:09:36.741Z,102216.34
2022-10-18T04:12:03.691Z,102223.59
2022-10-18T04:14:30.632Z,102226.72
2022-10-18T04:16:57.469Z,102228.72
2022-10-18T04:19:24.462Z,102237.72
2022-10-18T04:21:51.258Z,102230.47
2022-10-18T04:24:18.304Z,102232.88
2022-10-18T04:26:45.255Z,102247.44
2022-10-18T04:29:12.147Z,102248.25
2022-10-18T04:31:39.042Z,102241.19
2022-10-18T04:34:05.877Z,102244.63
2022-10-18T04:36:32.733Z,102250.63
2022-10-18T04:38:59.617Z,102255.81
2022-10-18T04:41:26.713Z,102246.22
2022-10-18T04:43:53.606Z,102249.25
2022-10-18T04:46:20.352Z,102252.22
2022-10-18T04:48:47.240Z,102250.06
2022-10-18T04:51:14.185Z,102240.41
2022-10-18T04:53:41.078Z,102263.19
2022-10-18T04:56:08.382Z,102260.25
2022-10-18T04:58:35.373Z,102266.06
2022-10-18T05:01:08.264Z,102268.50
2022-10-18T05:03:35.820Z,102264.00
2022-10-18T05:06:03.521Z,102266.38
2022-10-18T05:08:34.574Z,102263.47
2022-10-18T05:11:02.132Z,102260.56
2022-10-18T05:13:29.604Z,102264.69
2022-10-18T05:15:56.549Z,102263.56
2022-10-18T05:18:23.465Z,102259.03
2022-10-18T05:20:50.375Z,102272.06
2022-10-18T05:23:17.372Z,102263.41
2022-10-18T05:25:44.571Z,102264.44
2022-10-18T05:28:34.711Z,102267.28
2022-10-18T05:31:06.579Z,102270.94
2022-10-18T05:33:34.085Z,102276.22
2022-10-18T05:36:01.637Z,102280.66
2022-10-18T05:38:31.283Z,102278.03
2022-10-18T05:40:59.373Z,102277.06
2022-10-18T05:43:29.949Z,102270.91
2022-10-18T05:45:56.849Z,102274.41
2022-10-18T05:48:23.734Z,102270.94
2022-10-18T05:50:51.398Z,102272.72
2022-10-18T05:53:35.829Z,102278.75
2022-10-18T05:56:04.385Z,102288.34
2022-10-18T05:58:31.440Z,102293.72
2022-10-18T06:01:02.372Z,102302.56
2022-10-18T06:03:31.023Z,102316.72
2022-10-18T06:06:07.274Z,102302.72
2022-10-18T06:08:35.312Z,102300.03
2022-10-18T06:11:15.453Z,102297.34
2022-10-18T06:13:47.262Z,102302.31
2022-10-18T06:16:15.768Z,102295.50
2022-10-18T06:18:43.093Z,102307.13
2022-10-18T06:21:10.336Z,102305.75
2022-10-18T06:23:37.096Z,102299.06
2022-10-18T06:26:07.711Z,102304.63
2022-10-18T06:28:36.204Z,102308.09
2022-10-18T06:31:04.526Z,102305.75
2022-10-18T06:33:32.551Z,102314.81
2022-10-18T06:36:03.792Z,102315.94
2022-10-18T06:38:30.946Z,102310.06
2022-10-18T06:40:58.493Z,102310.22
2022-10-18T06:43:26.206Z,102305.16
2022-10-18T06:45:53.509Z,102317.47
2022-10-18T06:48:21.239Z,102317.47
2022-10-18T06:50:59.142Z,102322.63
2022-10-18T06:53:28.835Z,102312.25
2022-10-18T06:56:07.606Z,102318.34
2022-10-18T06:58:35.680Z,102308.06
2022-10-18T07:01:13.831Z,102314.16
2022-10-18T07:03:40.728Z,102317.69
2022-10-18T07:06:09.267Z,102310.72
2022-10-18T07:08:36.624Z,102313.38
2022-10-18T07:11:04.280Z,102299.47
2022-10-18T07:13:33.627Z,102303.78
2022-10-18T07:16:11.589Z,102306.22
2022-10-18T07:18:43.557Z,102304.31
2022-10-18T07:21:12.964Z,102305.00
2022-10-18T07:23:42.091Z,102299.63
2022-10-18T07:26:20.762Z,102300.31
2022-10-18T07:28:50.945Z,102301.88
2022-10-18T07:31:18.497Z,102319.94
2022-10-18T07:33:45.463Z,102317.25
2022-10-18T07:36:13.403Z,102318.84
2022-10-18T07:38:40.869Z,102326.41
2022-10-18T07:41:11.403Z,102323.16
2022-10-18T07:43:42.277Z,102325.06
2022-10-18T07:46:09.530Z,102313.97
2022-10-18T07:48:36.377Z,102318.28
2022-10-18T07:51:04.602Z,102318.34
2022-10-18T07:53:32.528Z,102316.78
2022-10-18T07:56:07.273Z,102315.19
2022-10-18T07:58:36.396Z,102320.81
2022-10-18T08:01:07.893Z,102330.66
2022-10-18T08:03:35.667Z,102336.69
2022-10-18T08:06:03.425Z,102339.94
2022-10-18T08:08:30.324Z,102336.25
2022-10-18T08:11:03.672Z,102329.44
2022-10-18T08:13:31.015Z,102329.47
2022-10-18T08:16:06.823Z,102330.56
2022-10-18T08:18:34.688Z,102327.97
2022-10-18T08:21:05.877Z,102324.44
2022-10-18T08:23:33.689Z,102318.84
2022-10-18T08:26:09.440Z,102308.78
2022-10-18T08:28:39.507Z,102315.22
2022-10-18T08:31:17.475Z,102318.94
2022-10-18T08:33:44.568Z,102317.72
2022-10-18T08:36:15.004Z,102303.59
2022-10-18T08:38:42.657Z,102297.13
2022-10-18T08:41:34.395Z,102305.72
2022-10-18T08:44:21.960Z,102295.09
2022-10-18T08:46:52.176Z,102299.66
2022-10-18T08:49:31.978Z,102301.47
2022-10-18T08:51:59.274Z,102305.19
2022-10-18T08:54:30.273Z,102311.63
2022-10-18T08:57:01.580Z,102311.88
2022-10-18T08:59:38.695Z,102308.34
2022-10-18T09:02:44.099Z,102316.44
2022-10-18T09:05:14.579Z,102324.66
2022-10-18T09:08:09.931Z,102330.28
2022-10-18T09:10:55.384Z,102323.13
2022-10-18T09:13:40.490Z,102315.91
2022-10-18T09:16:16.598Z,102322.91
2022-10-18T09:19:10.283Z,102317.06
2022-10-18T09:21:49.244Z,102323.63
2022-10-18T09:25:00.529Z,102323.94
2022-10-18T09:27:55.177Z,102327.56
2022-10-18T09:30:49.710Z,102325.56
2022-10-18T09:33:39.361Z,102323.19
2022-10-18T09:36:09.758Z,102320.06
2022-10-18T09:38:49.933Z,102310.44
2022-10-18T09:41:26.077Z,102330.69
2022-10-18T09:44:07.009Z,102312.56
2022-10-18T09:46:39.175Z,102301.19
2022-10-18T09:49:34.335Z,102323.47
2022-10-18T09:52:06.908Z,102328.97
2022-10-18T09:54:33.771Z,102334.22
2022-10-18T09:57:12.899Z,102328.59
2022-10-18T09:59:46.996Z,102328.59
2022-10-18T10:02:16.863Z,102333.81
2022-10-18T10:04:44.058Z,102318.75
2022-10-18T10:07:24.939Z,102321.97
2022-10-18T10:10:13.323Z,102330.31
2022-10-18T10:12:41.503Z,102330.59
2022-10-18T10:15:28.282Z,102316.91
2022-10-18T10:18:07.241Z,102320.25
2022-10-18T10:20:44.218Z,102331.63
2022-10-18T10:23:20.334Z,102329.16
2022-10-18T10:25:56.435Z,102332.69
2022-10-18T10:28:33.529Z,102349.47
2022-10-18T10:31:24.546Z,102335.94
2022-10-18T10:34:05.044Z,102334.66
2022-10-18T10:36:33.625Z,102338.44
2022-10-18T10:39:08.322Z,102342.81
2022-10-18T10:41:35.607Z,102348.25
2022-10-18T10:44:05.209Z,102353.97
2022-10-18T10:46:36.823Z,102358.72
2022-10-18T10:49:35.079Z,102346.25
2022-10-18T10:52:27.491Z,102351.50
2022-10-18T10:57:47.640Z,102348.06
2022-10-18T11:00:46.903Z,102340.69
2022-10-18T11:03:28.417Z,102345.41
2022-10-18T11:05:58.089Z,102352.34
2022-10-18T11:08:30.769Z,102346.84
2022-10-18T11:11:27.948Z,102331.25
2022-10-18T11:14:25.802Z,102324.09
2022-10-18T11:17:14.252Z,102332.31
2022-10-18T11:19:58.906Z,102323.28
2022-10-18T11:22:30.144Z,102315.44
2022-10-18T11:24:57.363Z,102321.41
2022-10-18T11:27:37.924Z,102321.94
2022-10-18T11:30:16.282Z,102315.56
2022-10-18T11:33:09.593Z,102309.16
2022-10-18T11:35:47.702Z,102305.97
2022-10-18T11:38:42.236Z,102311.56
2022-10-18T11:41:20.252Z,102316.34
2022-10-18T11:44:02.577Z,102309.00
2022-10-18T11:46:51.570Z,102316.16
2022-10-18T11:49:46.359Z,102304.22
2022-10-18T11:52:27.995Z,102297.50
2022-10-18T11:55:19.209Z,102293.22
2022-10-18T11:57:49.288Z,102284.19
2022-10-18T12:03:11.588Z,102285.25
2022-10-18T12:05:41.489Z,102290.34
2022-10-18T12:08:20.695Z,102277.69
2022-10-18T12:11:05.581Z,102291.66
2022-10-18T12:13:43.906Z,102284.00
2022-10-18T12:16:12.555Z,102288.88
2022-10-18T12:21:25.855Z,102288.06
2022-10-18T12:23:58.469Z,102280.22
2022-10-18T12:26:28.576Z,102280.41
2022-10-18T12:29:14.420Z,102293.81
2022-10-18T12:31:52.998Z,102296.19
2022-10-18T12:34:22.758Z,102283.25
2022-10-18T12:37:01.472Z,102280.94
2022-10-18T12:39:43.662Z,102281.97
2022-10-18T12:42:22.962Z,102268.75
2022-10-18T12:45:00.268Z,102270.09
2022-10-18T12:47:29.723Z,102267.59
2022-10-18T12:50:04.127Z,102258.81
2022-10-18T12:52:34.082Z,102256.56
2022-10-18T12:55:19.565Z,102246.75
2022-10-18T12:57:52.295Z,102251.34
2022-10-18T13:00:31.244Z,102252.34
2022-10-18T13:03:10.460Z,102244.19
2022-10-18T13:05:55.206Z,102249.03
2022-10-18T13:08:34.710Z,102241.09
2022-10-18T13:11:01.450Z,102244.16
2022-10-18T13:13:44.468Z,102245.53
2022-10-18T13:16:14.286Z,102232.59
2022-10-18T13:18:57.251Z,102239.56
2022-10-18T13:21:41.817Z,102233.25
2022-10-18T13:24:29.449Z,102233.53
2022-10-18T13:27:36.562Z,102226.59
2022-10-18T13:30:18.897Z,102221.34
2022-10-18T13:33:09.791Z,102209.28
2022-10-18T13:35:56.000Z,102209.91
2022-10-18T13:39:03.874Z,102208.09
2022-10-18T13:41:56.507Z,102202.75
2022-10-18T13:44:40.024Z,102188.16
2022-10-18T13:47:07.220Z,102199.69
2022-10-18T13:49:39.861Z,102189.75
2022-10-18T13:52:15.906Z,102188.97
2022-10-18T13:55:27.346Z,102192.22
2022-10-18T13:58:15.656Z,102190.91
2022-10-18T14:00:55.186Z,102175.78
2022-10-18T14:03:56.166Z,102177.19
2022-10-18T14:06:27.124Z,102185.41
2022-10-18T14:09:26.141Z,102167.78
2022-10-18T14:12:12.201Z,102176.34
2022-10-18T14:14:46.426Z,102174.81
2022-10-18T14:17:19.814Z,102189.00
2022-10-18T14:19:54.037Z,102178.88
2022-10-18T14:22:25.586Z,102166.97
2022-10-18T14:24:55.652Z,102168.16
2022-10-18T14:27:25.060Z,102166.63
2022-10-18T14:30:13.156Z,102160.63
2022-10-18T14:32:50.020Z,102156.06
2022-10-18T14:35:35.916Z,102154.69
2022-10-18T14:38:03.320Z,102144.81
2022-10-18T14:40:33.037Z,102147.28
2022-10-18T14:43:05.609Z,102152.84
2022-10-18T14:45:32.496Z,102154.81
2022-10-18T14:48:24.020Z,102151.47
2022-10-18T14:50:59.343Z,102146.09
2022-10-18T14:53:36.196Z,102151.03
2022-10-18T14:56:10.093Z,102139.41
2022-10-18T14:58:38.284Z,102141.63
2022-10-18T15:01:05.754Z,102144.03
2022-10-18T15:03:35.909Z,102144.03
2022-10-18T15:06:05.660Z,102143.50
2022-10-18T15:08:40.499Z,102145.09
2022-10-18T15:11:11.845Z,102137.38
2022-10-18T15:14:03.306Z,102140.09
2022-10-18T15:16:32.713Z,102137.72
2022-10-18T15:19:07.378Z,102138.38
2022-10-18T15:21:37.155Z,102141.13
2022-10-18T15:24:30.262Z,102137.72
2022-10-18T15:27:02.369Z,102149.16
2022-10-18T15:29:33.469Z,102141.13
2022-10-18T15:32:09.113Z,102128.25
2022-10-18T15:34:36.213Z,102129.69
2022-10-18T15:37:35.433Z,102126.13
2022-10-18T15:40:21.609Z,102112.78
2022-10-18T15:42:53.476Z,102111.69
2022-10-18T15:45:27.680Z,102101.00
2022-10-18T15:48:03.283Z,102093.00
2022-10-18T15:50:53.527Z,102076.34
2022-10-18T15:53:23.794Z,102100.53
2022-10-18T15:56:00.013Z,102091.09
2022-10-18T15:58:44.054Z,102104.69
2022-10-18T16:01:17.467Z,102101.00
2022-10-18T16:03:46.667Z,102094.88
2022-10-18T16:06:18.083Z,102082.97
2022-10-18T16:08:50.423Z,102082.38
2022-10-18T16:11:19.775Z,102082.66
2022-10-18T16:13:47.532Z,102083.03
2022-10-18T16:16:18.328Z,102086.00
2022-10-18T16:18:45.422Z,102086.28
2022-10-18T16:21:26.755Z,102081.50
2022-10-18T16:23:53.990Z,102075.72
2022-10-18T16:26:21.719Z,102081.53
2022-10-18T16:28:49.550Z,102072.19
2022-10-18T16:31:29.275Z,102072.69
2022-10-18T16:33:57.292Z,102054.56
2022-10-18T16:36:27.003Z,102065.03
2022-10-18T16:38:55.332Z,102068.69
2022-10-18T16:41:22.904Z,102075.84
2022-10-18T16:43:50.407Z,102076.88
2022-10-18T16:46:28.095Z,102071.59
2022-10-18T16:48:55.609Z,102088.53
2022-10-18T16:51:22.813Z,102102.84
2022-10-18T16:53:49.967Z,102093.22
2022-10-18T16:56:25.915Z,102080.19
2022-10-18T16:58:53.529Z,102075.84
2022-10-18T17:01:22.629Z,102082.22
2022-10-18T17:03:52.334Z,102080.59
2022-10-18T17:06:25.466Z,102080.84
2022-10-18T17:08:54.312Z,102058.19
2022-10-18T17:11:22.837Z,102065.34
2022-10-18T17:13:50.093Z,102061.94
2022-10-18T17:16:31.751Z,102055.84
2022-10-18T17:19:01.743Z,102056.81
2022-10-18T17:21:29.867Z,102051.69
2022-10-18T17:24:03.190Z,102032.47
2022-10-18T17:26:30.809Z,102036.91
2022-10-18T17:29:08.447Z,102042.34
2022-10-18T17:31:35.991Z,102047.59
2022-10-18T17:34:03.536Z,102043.41
2022-10-18T17:36:32.385Z,102029.28
2022-10-18T17:38:59.212Z,102050.31
2022-10-18T17:41:26.475Z,102045.06
2022-10-18T17:43:53.624Z,102044.22
2022-10-18T17:46:20.681Z,102031.94
2022-10-18T17:48:47.877Z,102038.06
2022-10-18T17:51:17.172Z,102050.41
2022-10-18T17:53:44.580Z,102068.03
2022-10-18T17:56:12.853Z,102069.03
2022-10-18T17:58:40.154Z,102073.69
2022-10-18T18:01:15.250Z,102070.38
2022-10-18T18:03:42.943Z,102068.69
2022-10-18T18:06:36.736Z,102069.69
2022-10-18T18:09:08.542Z,102072.31
2022-10-18T18:11:37.038Z,102074.97
2022-10-18T18:14:09.326Z,102054.56
2022-10-18T18:16:41.715Z,102061.78
2022-10-18T18:19:10.035Z,102060.16
2022-10-18T18:21:38.160Z,102063.66
2022-10-18T18:24:05.314Z,102060.16
2022-10-18T18:26:33.584Z,102053.03
2022-10-18T18:31:38.621Z,102050.72
2022-10-18T18:34:09.989Z,102027.09
2022-10-18T18:36:37.193Z,102031.41
2022-10-18T18:39:05.755Z,102029.72
2022-10-18T18:41:33.395Z,102035.00
2022-10-18T18:44:02.270Z,102024.59
2022-10-18T18:46:33.313Z,102022.06
2022-10-18T18:49:00.829Z,102030.97
2022-10-18T18:51:28.594Z,102046.03
2022-10-18T18:53:55.594Z,102031.22
2022-10-18T18:56:24.319Z,102031.16
2022-10-18T18:58:52.299Z,102017.97
2022-10-18T19:01:21.736Z,102030.19
2022-10-18T19:03:50.486Z,102037.19
2022-10-18T19:06:23.515Z,102037.03
2022-10-18T19:08:52.814Z,102026.81
2022-10-18T19:11:22.485Z,102034.47
2022-10-18T19:13:49.932Z,102027.41
2022-10-18T19:16:28.291Z,102040.59
2022-10-18T19:18:57.080Z,102029.88
2022-10-18T19:21:25.824Z,102023.66
2022-10-18T19:23:53.697Z,102016.63
2022-10-18T19:26:54.423Z,101997.47
2022-10-18T19:29:24.795Z,102006.06
2022-10-18T19:31:53.848Z,102001.78
2022-10-18T19:34:22.273Z,101996.66
2022-10-18T19:36:50.088Z,101993.97
2022-10-18T19:39:34.342Z,101993.19
2022-10-18T19:42:03.841Z,101988.00
2022-10-18T19:44:33.150Z,101982.28
2022-10-18T19:47:00.807Z,101992.66
2022-10-18T19:49:28.928Z,101998.94
2022-10-18T19:51:56.805Z,101986.84
2022-10-18T19:54:24.616Z,101984.03
2022-10-18T19:56:51.876Z,101985.84
2022-10-18T19:59:19.380Z,101991.03
2022-10-18T20:01:46.457Z,101975.38
2022-10-18T20:04:13.928Z,101989.78
2022-10-18T20:06:41.689Z,101976.41
2022-10-18T20:09:12.353Z,101970.81
2022-10-18T20:11:41.876Z,101968.16
2022-10-18T20:14:10.989Z,101961.09
2022-10-18T20:16:37.869Z,101965.03
2022-10-18T20:19:07.523Z,101974.72
2022-10-18T20:21:36.173Z,101973.81
2022-10-18T20:24:07.146Z,101962.13
2022-10-18T20:26:36.120Z,101946.31
2022-10-18T20:29:04.178Z,101948.88
2022-10-18T20:31:33.981Z,101948.09
2022-10-18T20:34:02.765Z,101944.50
2022-10-18T20:36:31.346Z,101946.31
2022-10-18T20:38:59.063Z,101935.84
2022-10-18T20:41:28.624Z,101932.53
2022-10-18T20:43:58.848Z,101929.97
2022-10-18T20:46:27.725Z,101936.09
2022-10-18T20:48:54.992Z,101929.97
2022-10-18T20:51:23.201Z,101927.31
2022-10-18T20:53:50.409Z,101947.59
2022-10-18T20:56:22.687Z,101943.06
2022-10-18T20:58:51.674Z,101954.47
2022-10-18T21:01:21.351Z,101954.66
2022-10-18T21:03:50.326Z,101954.66
2022-10-18T21:06:19.672Z,101956.50
2022-10-18T21:08:46.977Z,101945.88
2022-10-18T21:11:14.582Z,101945.88
2022-10-18T21:13:41.420Z,101948.50
2022-10-18T21:16:08.275Z,101936.97
2022-10-18T21:18:37.059Z,101929.81
2022-10-18T21:21:14.538Z,101920.00
2022-10-18T21:23:43.297Z,101907.66
2022-10-18T21:26:24.828Z,101905.72
2022-10-18T21:28:53.955Z,101889.13
2022-10-18T21:31:23.583Z,101877.38
2022-10-18T21:33:58.769Z,101877.91
2022-10-18T21:36:26.785Z,101874.66
2022-10-18T21:38:53.842Z,101875.69
2022-10-18T21:41:22.375Z,101868.63
2022-10-18T21:43:52.392Z,101869.56
2022-10-18T21:46:21.588Z,101879.25
2022-10-18T21:48:50.994Z,101894.16
2022-10-18T21:51:19.985Z,101894.03
2022-10-18T21:53:48.768Z,101893.28
2022-10-18T21:56:21.602Z,101903.91
2022-10-18T21:58:48.749Z,101901.38
2022-10-18T22:01:18.232Z,101897.13
2022-10-18T22:03:46.223Z,101882.34
2022-10-18T22:06:15.379Z,101873.63
2022-10-18T22:08:50.761Z,101872.78
2022-10-18T22:11:19.958Z,101855.16
2022-10-18T22:13:47.160Z,101857.66
2022-10-18T22:16:16.662Z,101852.22
2022-10-18T22:18:45.090Z,101865.22
2022-10-18T22:21:14.087Z,101852.03
2022-10-18T22:23:44.001Z,101843.47
2022-10-18T22:26:16.690Z,101836.91
2022-10-18T22:28:45.144Z,101825.50
2022-10-18T22:31:21.126Z,101861.69
2022-10-18T22:33:54.206Z,101830.72
2022-10-18T22:36:21.252Z,101840.00
2022-10-18T22:38:48.145Z,101819.25
2022-10-18T22:41:15.096Z,101829.78
2022-10-18T22:43:42.397Z,101824.00
2022-10-18T22:46:11.901Z,101807.50
2022-10-18T22:48:39.304Z,101800.84
2022-10-18T22:51:06.875Z,101798.91
2022-10-18T22:53:34.332Z,101798.84
2022-10-18T22:56:01.420Z,101794.34
2022-10-18T22:58:28.625Z,101811.84
2022-10-18T23:01:07.349Z,101800.22
2022-10-18T23:03:34.511Z,101797.50
2022-10-18T23:06:02.054Z,101798.09
2022-10-18T23:08:29.715Z,101783.94
2022-10-18T23:10:59.066Z,101773.06
2022-10-18T23:13:27.157Z,101782.06
2022-10-18T23:15:54.131Z,101791.13
2022-10-18T23:18:20.980Z,101788.38
2022-10-18T23:20:47.774Z,101784.06
2022-10-18T23:23:14.651Z,101778.81
2022-10-18T23:25:41.509Z,101789.25
2022-10-18T23:28:08.399Z,101800.63
2022-10-18T23:30:38.320Z,101779.56
2022-10-18T23:33:05.157Z,101768.88
2022-10-18T23:35:31.893Z,101769.72
2022-10-18T23:37:58.839Z,101770.53
2022-10-18T23:40:25.739Z,101763.44
2022-10-18T23:42:52.627Z,101771.50
2022-10-18T23:45:19.580Z,101767.00
2022-10-18T23:47:46.465Z,101781.97
2022-10-18T23:50:13.313Z,101771.41
2022-10-18T23:52:40.212Z,101765.19
2022-10-18T23:55:07.718Z,101769.56
2022-10-18T23:57:34.710Z,101756.28
